Time;durP1;ratioP1;P1;durP2;ratioP2;P2;SDS_P1;SDS_P2;PMS_P1;PMS_P2;Temp;Humidity;BMP_temperature;BMP_pressure;BME280_temperature;BME280_humidity;BME280_pressure;Samples;Min_cycle;Max_cycle;Signal;HPM_P1;HPM_P2
2024/02/23 00:02:06;;;;;;;30.10;20.98;;;8.50;85.40;;;;;;5110455;28;20043;-75
2024/02/23 00:04:33;;;;;;;29.90;20.30;;;8.60;84.90;;;;;;5090516;28;20119;-73
2024/02/23 00:07:02;;;;;;;27.00;19.90;;;8.20;86.30;;;;;;5110462;28;20047;-72
2024/02/23 00:09:30;;;;;;;37.20;23.00;;;8.10;86.90;;;;;;5109659;28;20143;-74
2024/02/23 00:11:57;;;;;;;34.95;23.38;;;8.30;87.70;;;;;;5110537;28;20055;-72
2024/02/23 00:14:25;;;;;;;29.60;20.70;;;8.70;86.40;;;;;;5092213;28;20071;-73
2024/02/23 00:16:52;;;;;;;30.95;20.23;;;8.60;85.40;;;;;;5106967;28;20499;-72
2024/02/23 00:19:21;;;;;;;30.80;20.00;;;8.70;85.10;;;;;;5092015;28;20043;-71
2024/02/23 00:21:50;;;;;;;30.90;21.08;;;8.60;85.30;;;;;;5092094;28;20051;-72
2024/02/23 00:24:17;;;;;;;29.02;19.27;;;8.70;85.00;;;;;;5110210;28;20050;-71
2024/02/23 00:26:46;;;;;;;28.42;20.10;;;8.80;85.20;;;;;;5100379;28;20694;-71
2024/02/23 00:29:13;;;;;;;27.20;20.38;;;8.80;84.90;;;;;;5092311;28;20054;-70
2024/02/23 00:31:40;;;;;;;31.85;20.45;;;8.80;84.70;;;;;;5093153;28;20047;-71
2024/02/23 00:34:10;;;;;;;31.05;19.60;;;8.60;85.60;;;;;;5071502;28;20039;-71
2024/02/23 00:36:39;;;;;;;31.23;20.33;;;8.60;85.10;;;;;;5090839;28;20089;-72
2024/02/23 00:39:07;;;;;;;31.85;21.05;;;8.40;86.10;;;;;;5105537;28;20067;-71
2024/02/23 00:41:35;;;;;;;32.83;21.20;;;8.40;86.20;;;;;;5066391;28;20036;-71
2024/02/23 00:44:03;;;;;;;31.13;20.00;;;8.50;85.70;;;;;;5107224;28;20048;-70
2024/02/23 00:46:31;;;;;;;28.40;19.23;;;8.50;85.90;;;;;;5111924;28;20111;-71
2024/02/23 00:48:58;;;;;;;32.03;20.55;;;8.50;85.90;;;;;;5107436;28;21133;-71
2024/02/23 00:51:25;;;;;;;30.63;20.20;;;8.70;85.50;;;;;;5107635;28;20048;-72
2024/02/23 00:53:53;;;;;;;32.47;20.42;;;8.60;85.70;;;;;;5101493;27;20063;-71
2024/02/23 00:56:20;;;;;;;31.65;21.38;;;8.40;86.30;;;;;;5094211;27;20122;-71
2024/02/23 00:58:53;;;;;;;30.77;22.02;;;8.30;86.70;;;;;;5095673;27;20057;-71
2024/02/23 01:01:20;;;;;;;34.17;22.38;;;8.40;87.10;;;;;;5111598;28;20028;-73
2024/02/23 01:03:48;;;;;;;36.60;21.95;;;8.30;87.10;;;;;;5113781;27;20414;-71
2024/02/23 01:06:16;;;;;;;31.02;20.90;;;8.30;87.00;;;;;;5094941;28;20084;-72
2024/02/23 01:08:44;;;;;;;36.03;22.63;;;8.30;86.80;;;;;;5093053;28;20039;-73
2024/02/23 01:11:11;;;;;;;40.28;23.40;;;8.30;86.80;;;;;;5107703;28;20031;-71
2024/02/23 01:13:38;;;;;;;29.48;22.02;;;8.30;86.70;;;;;;5090372;28;20043;-72
2024/02/23 01:16:06;;;;;;;39.80;22.77;;;8.30;87.10;;;;;;5113787;27;20035;-70
2024/02/23 01:18:34;;;;;;;40.53;26.02;;;8.30;87.00;;;;;;5111674;28;20074;-72
2024/02/23 01:21:02;;;;;;;39.75;24.98;;;8.20;87.00;;;;;;5097822;28;20047;-72
2024/02/23 01:23:29;;;;;;;38.15;24.95;;;8.00;87.80;;;;;;5095767;28;20052;-72
2024/02/23 01:25:58;;;;;;;42.33;25.65;;;7.90;88.60;;;;;;5112523;28;20124;-74
2024/02/23 01:28:26;;;;;;;42.33;27.70;;;7.90;88.70;;;;;;5113202;27;20073;-70
2024/02/23 01:30:53;;;;;;;48.70;29.73;;;7.80;88.40;;;;;;5095569;28;20040;-72
2024/02/23 01:33:21;;;;;;;53.28;29.45;;;7.60;89.30;;;;;;5095686;28;20405;-71
2024/02/23 01:35:48;;;;;;;45.80;27.80;;;7.70;89.30;;;;;;5094754;28;20043;-71
2024/02/23 01:38:20;;;;;;;46.53;27.65;;;7.90;89.10;;;;;;5088459;27;20398;-71
2024/02/23 01:40:47;;;;;;;43.83;28.60;;;7.90;88.50;;;;;;5107127;27;20063;-71
2024/02/23 01:43:15;;;;;;;44.22;27.40;;;7.80;88.70;;;;;;5088044;28;20039;-71
2024/02/23 01:45:42;;;;;;;41.17;25.88;;;7.90;89.00;;;;;;5093201;28;20040;-72
2024/02/23 01:48:10;;;;;;;44.00;27.73;;;7.70;89.30;;;;;;5090252;28;20079;-71
2024/02/23 01:50:38;;;;;;;38.80;24.50;;;7.60;89.70;;;;;;5107289;28;20431;-72
2024/02/23 01:53:05;;;;;;;41.85;27.45;;;7.50;90.20;;;;;;5091185;28;20047;-72
2024/02/23 01:55:33;;;;;;;42.58;26.02;;;7.80;89.90;;;;;;5087661;28;20044;-71
2024/02/23 01:58:04;;;;;;;39.35;25.75;;;7.90;89.00;;;;;;5090566;28;20054;-72
2024/02/23 02:00:36;;;;;;;41.08;27.00;;;7.90;88.40;;;;;;5111418;28;20105;-71
2024/02/23 02:03:04;;;;;;;47.60;28.10;;;7.90;88.40;;;;;;5108574;28;20062;-72
2024/02/23 02:05:37;;;;;;;43.95;27.65;;;7.80;88.70;;;;;;5088132;28;20138;-72
2024/02/23 02:08:05;;;;;;;44.83;30.00;;;7.80;88.80;;;;;;5108831;28;20036;-71
2024/02/23 02:10:33;;;;;;;40.30;26.20;;;7.70;89.10;;;;;;5111102;28;20380;-72
2024/02/23 02:13:04;;;;;;;49.53;28.25;;;7.50;90.00;;;;;;5111583;28;20062;-71
2024/02/23 02:15:31;;;;;;;43.05;27.35;;;7.50;90.10;;;;;;5109407;28;20063;-71
2024/02/23 02:17:59;;;;;;;41.45;28.38;;;7.30;90.50;;;;;;5093131;28;20050;-73
2024/02/23 02:20:28;;;;;;;38.13;25.15;;;7.30;90.50;;;;;;5108159;28;20036;-72
2024/02/23 02:22:55;;;;;;;48.38;28.77;;;7.40;90.60;;;;;;5108436;28;20402;-72
2024/02/23 02:25:23;;;;;;;44.22;27.75;;;7.40;90.10;;;;;;5101235;27;20036;-71
2024/02/23 02:27:50;;;;;;;39.03;25.80;;;7.40;90.60;;;;;;5104549;28;20108;-70
2024/02/23 02:30:18;;;;;;;33.97;23.48;;;7.10;90.80;;;;;;5107475;28;20486;-70
2024/02/23 02:32:45;;;;;;;41.00;24.48;;;7.20;91.00;;;;;;5092015;28;20039;-72
2024/02/23 02:35:12;;;;;;;46.92;27.65;;;7.50;90.60;;;;;;5104770;28;20140;-71
2024/02/23 02:37:40;;;;;;;36.95;22.02;;;7.70;90.00;;;;;;5109436;28;20501;-71
2024/02/23 02:40:08;;;;;;;30.88;22.20;;;7.50;89.70;;;;;;5104268;28;20059;-72
2024/02/23 02:42:35;;;;;;;32.05;21.17;;;7.30;90.30;;;;;;5106915;28;20039;-71
2024/02/23 02:45:02;;;;;;;34.92;23.05;;;7.50;90.60;;;;;;5090816;28;20467;-71
2024/02/23 02:47:30;;;;;;;31.58;21.98;;;7.50;90.30;;;;;;5109736;28;20043;-70
2024/02/23 02:49:58;;;;;;;36.17;23.35;;;7.20;90.50;;;;;;5091269;28;20097;-71
2024/02/23 02:52:25;;;;;;;37.88;23.52;;;7.40;90.70;;;;;;5101726;28;20077;-70
2024/02/23 02:54:52;;;;;;;36.08;22.10;;;7.30;90.60;;;;;;5070438;28;20043;-72
2024/02/23 02:57:20;;;;;;;36.30;23.10;;;7.40;90.70;;;;;;5110835;28;20031;-71
2024/02/23 02:59:49;;;;;;;28.65;20.98;;;7.50;90.40;;;;;;5073064;28;20036;-72
2024/02/23 03:02:17;;;;;;;29.08;20.00;;;7.30;90.20;;;;;;5089340;28;20047;-71
2024/02/23 03:04:48;;;;;;;34.75;21.88;;;7.30;90.60;;;;;;5102443;28;20038;-71
2024/02/23 03:07:19;;;;;;;31.33;20.42;;;7.10;90.80;;;;;;5072986;28;20039;-71
2024/02/23 03:09:46;;;;;;;33.17;21.10;;;7.00;91.20;;;;;;5073765;28;20038;-71
2024/02/23 03:12:13;;;;;;;38.45;23.08;;;7.10;91.10;;;;;;5091924;28;20465;-73
2024/02/23 03:14:41;;;;;;;32.10;21.85;;;7.10;90.90;;;;;;5109920;28;20036;-70
2024/02/23 03:17:11;;;;;;;33.80;21.23;;;7.10;91.20;;;;;;5090286;28;20402;-72
2024/02/23 03:19:39;;;;;;;28.08;19.45;;;7.30;91.00;;;;;;5091638;28;20040;-70
2024/02/23 03:22:06;;;;;;;29.33;19.45;;;7.00;90.80;;;;;;5071087;28;20051;-69
2024/02/23 03:24:33;;;;;;;29.52;19.42;;;6.80;92.00;;;;;;5086257;28;20035;-70
2024/02/23 03:27:01;;;;;;;29.67;19.75;;;6.90;91.60;;;;;;5087742;28;20131;-71
2024/02/23 03:29:29;;;;;;;26.73;19.10;;;6.70;91.90;;;;;;5088712;28;20435;-71
2024/02/23 03:31:57;;;;;;;27.00;19.67;;;6.70;92.30;;;;;;5107379;28;20114;-73
2024/02/23 03:34:25;;;;;;;26.67;19.58;;;6.90;92.00;;;;;;5088806;28;20039;-72
2024/02/23 03:36:53;;;;;;;35.22;20.88;;;7.00;91.70;;;;;;5104442;28;20051;-70
2024/02/23 03:39:20;;;;;;;37.90;22.15;;;7.00;91.40;;;;;;5074456;28;20040;-69
2024/02/23 03:41:48;;;;;;;35.75;24.10;;;6.90;91.40;;;;;;5105930;28;20036;-72
2024/02/23 03:44:15;;;;;;;38.75;23.88;;;7.00;91.40;;;;;;5107351;28;20039;-71
2024/02/23 03:46:42;;;;;;;38.30;23.60;;;6.70;91.60;;;;;;5109487;28;20501;-73
2024/02/23 03:49:09;;;;;;;37.15;23.60;;;6.50;91.90;;;;;;5090991;28;20050;-71
2024/02/23 03:51:39;;;;;;;36.05;23.75;;;6.50;92.00;;;;;;5107871;28;20493;-70
2024/02/23 03:54:06;;;;;;;35.17;23.63;;;6.60;91.90;;;;;;5087655;28;20127;-72
2024/02/23 03:56:41;;;;;;;36.15;23.02;;;6.60;91.80;;;;;;5088234;28;20074;-71
2024/02/23 03:59:09;;;;;;;32.17;21.38;;;6.60;91.90;;;;;;5088529;28;20075;-71
2024/02/23 04:01:39;;;;;;;35.67;21.50;;;6.60;91.70;;;;;;5081235;28;20407;-72
2024/02/23 04:04:07;;;;;;;36.05;21.73;;;6.70;91.50;;;;;;5108529;28;20048;-71
2024/02/23 04:06:35;;;;;;;36.30;20.52;;;6.70;91.60;;;;;;5090931;28;20048;-71
2024/02/23 04:09:05;;;;;;;29.98;20.50;;;6.60;91.80;;;;;;5089190;28;20043;-71
2024/02/23 04:11:33;;;;;;;28.05;20.48;;;6.60;91.90;;;;;;5088732;28;20101;-70
2024/02/23 04:14:01;;;;;;;28.58;19.13;;;6.40;92.50;;;;;;5087889;28;20495;-69
2024/02/23 04:16:28;;;;;;;31.20;20.52;;;6.40;92.50;;;;;;5105055;28;20507;-71
2024/02/23 04:18:56;;;;;;;36.00;20.95;;;6.50;92.20;;;;;;5089337;28;20123;-71
2024/02/23 04:21:24;;;;;;;32.60;20.83;;;6.50;92.30;;;;;;5106460;28;20032;-69
2024/02/23 04:23:52;;;;;;;36.60;22.58;;;6.50;92.10;;;;;;5106815;28;20648;-72
2024/02/23 04:26:19;;;;;;;32.15;22.60;;;6.60;91.80;;;;;;5104751;28;20102;-70
2024/02/23 04:28:47;;;;;;;38.80;22.30;;;6.60;91.70;;;;;;5090823;28;20044;-70
2024/02/23 04:31:14;;;;;;;33.45;22.05;;;6.50;91.30;;;;;;5112126;28;20051;-71
2024/02/23 04:33:42;;;;;;;40.65;23.13;;;6.30;91.40;;;;;;5094435;28;20471;-70
2024/02/23 04:36:09;;;;;;;31.75;20.80;;;6.00;92.60;;;;;;5110016;28;20067;-71
2024/02/23 04:38:37;;;;;;;32.13;21.52;;;6.10;92.40;;;;;;5077095;28;20441;-71
2024/02/23 04:41:07;;;;;;;32.95;21.08;;;6.30;92.20;;;;;;5111874;28;20047;-72
2024/02/23 04:43:35;;;;;;;33.22;21.75;;;6.40;91.90;;;;;;5090694;28;20390;-71
2024/02/23 04:46:02;;;;;;;34.15;21.50;;;6.10;92.10;;;;;;5113176;28;20054;-71
2024/02/23 04:48:31;;;;;;;32.72;21.40;;;6.00;92.40;;;;;;5092188;28;20486;-72
2024/02/23 04:50:58;;;;;;;32.97;20.98;;;5.90;92.40;;;;;;5095476;28;20066;-71
2024/02/23 04:53:26;;;;;;;29.95;20.80;;;5.60;93.50;;;;;;5110254;28;20040;-70
2024/02/23 04:55:54;;;;;;;33.15;21.88;;;5.80;94.20;;;;;;5111278;28;20227;-72
2024/02/23 04:58:21;;;;;;;29.92;20.58;;;6.00;93.50;;;;;;5105991;28;20064;-71
2024/02/23 05:00:49;;;;;;;38.42;22.50;;;6.10;92.80;;;;;;5091800;28;20067;-72
2024/02/23 05:03:16;;;;;;;37.47;22.30;;;6.10;92.60;;;;;;5109584;28;20035;-73
2024/02/23 05:05:43;;;;;;;33.95;21.92;;;6.00;92.90;;;;;;5112868;28;20039;-70
2024/02/23 05:08:11;;;;;;;36.70;21.95;;;6.20;92.70;;;;;;5106383;28;20047;-71
2024/02/23 05:10:38;;;;;;;35.28;22.10;;;6.30;92.30;;;;;;5094705;28;20150;-71
2024/02/23 05:13:06;;;;;;;33.08;21.40;;;6.30;92.30;;;;;;5113146;28;20039;-74
2024/02/23 05:15:33;;;;;;;29.02;19.75;;;6.20;92.40;;;;;;5092146;28;20040;-71
2024/02/23 05:18:00;;;;;;;31.98;20.52;;;6.20;92.30;;;;;;5109012;28;20119;-71
2024/02/23 05:20:28;;;;;;;32.88;21.52;;;6.30;92.10;;;;;;5112331;28;20043;-70
2024/02/23 05:22:55;;;;;;;34.90;21.60;;;6.30;92.20;;;;;;5088312;28;20051;-70
2024/02/23 05:25:23;;;;;;;28.15;20.17;;;6.30;92.20;;;;;;5110026;28;20059;-70
2024/02/23 05:27:50;;;;;;;31.20;19.98;;;6.40;91.90;;;;;;5090415;28;20039;-70
2024/02/23 05:30:17;;;;;;;30.10;19.30;;;6.30;92.50;;;;;;5106259;28;20027;-71
2024/02/23 05:32:46;;;;;;;31.00;19.80;;;6.10;92.40;;;;;;5111582;28;20503;-71
2024/02/23 05:35:14;;;;;;;28.55;19.25;;;5.90;93.50;;;;;;5088132;28;20040;-72
2024/02/23 05:37:42;;;;;;;26.55;17.00;;;6.20;93.20;;;;;;5106203;28;20043;-70
2024/02/23 05:40:10;;;;;;;24.83;17.95;;;6.40;92.70;;;;;;5106338;28;20119;-71
2024/02/23 05:42:39;;;;;;;30.23;18.65;;;6.60;92.20;;;;;;5085874;28;20487;-72
2024/02/23 05:45:09;;;;;;;31.58;21.00;;;6.70;91.80;;;;;;5085739;28;20071;-72
2024/02/23 05:47:40;;;;;;;25.60;18.60;;;6.70;91.60;;;;;;5075127;28;20044;-70
2024/02/23 05:50:14;;;;;;;30.45;19.80;;;6.70;91.50;;;;;;5111209;28;20040;-70
2024/02/23 05:52:41;;;;;;;28.48;18.55;;;6.60;91.90;;;;;;5108164;28;20043;-71
2024/02/23 05:55:08;;;;;;;29.08;19.77;;;6.00;93.20;;;;;;5105424;28;20143;-68
2024/02/23 05:57:36;;;;;;;28.25;19.10;;;6.40;93.00;;;;;;5106181;28;20040;-70
2024/02/23 06:00:04;;;;;;;32.97;18.83;;;6.50;92.70;;;;;;5104274;28;20151;-72
2024/02/23 06:02:32;;;;;;;26.42;18.55;;;6.80;92.00;;;;;;5104527;28;20054;-73
2024/02/23 06:04:59;;;;;;;33.78;20.92;;;6.70;91.60;;;;;;5075340;28;20032;-72
2024/02/23 06:07:28;;;;;;;36.85;21.05;;;6.70;91.70;;;;;;5105615;28;20032;-71
2024/02/23 06:09:56;;;;;;;38.72;21.52;;;6.70;91.30;;;;;;5101798;28;20108;-70
2024/02/23 06:12:24;;;;;;;81.55;47.15;;;6.70;91.00;;;;;;5081823;28;20452;-71
2024/02/23 06:14:53;;;;;;;102.78;52.67;;;6.70;92.50;;;;;;5098812;28;20044;-70
2024/02/23 06:17:20;;;;;;;67.75;39.13;;;6.80;92.40;;;;;;5089335;28;20122;-72
2024/02/23 06:19:47;;;;;;;39.47;26.00;;;7.20;91.60;;;;;;5088970;28;20040;-71
2024/02/23 06:22:20;;;;;;;53.00;35.00;;;7.20;90.60;;;;;;5086720;28;20043;-71
2024/02/23 06:24:48;;;;;;;258.95;126.85;;;7.00;91.50;;;;;;5086037;28;20046;-72
2024/02/23 06:27:15;;;;;;;82.80;48.80;;;7.40;91.50;;;;;;5071287;28;20117;-73
2024/02/23 06:29:43;;;;;;;49.35;32.28;;;7.70;90.50;;;;;;5100055;28;20055;-72
2024/02/23 06:32:10;;;;;;;36.92;24.25;;;7.50;90.40;;;;;;5106695;28;20690;-71
2024/02/23 06:34:37;;;;;;;31.00;21.25;;;7.60;90.40;;;;;;5089577;28;20426;-74
2024/02/23 06:37:06;;;;;;;33.33;21.35;;;7.80;90.10;;;;;;5071400;28;20138;-69
2024/02/23 06:39:33;;;;;;;33.92;20.88;;;7.90;89.60;;;;;;5075008;28;20151;-72
2024/02/23 06:42:03;;;;;;;29.42;20.48;;;7.80;88.90;;;;;;5093401;28;20040;-71
2024/02/23 06:44:31;;;;;;;28.63;19.55;;;7.90;90.00;;;;;;5105320;28;20036;-71
2024/02/23 06:46:58;;;;;;;27.73;18.23;;;8.10;89.80;;;;;;5104899;28;20039;-70
2024/02/23 06:49:26;;;;;;;26.73;18.38;;;8.20;88.90;;;;;;5109354;28;20040;-71
2024/02/23 06:51:53;;;;;;;28.77;19.77;;;8.30;88.70;;;;;;5068136;28;20102;-71
2024/02/23 06:54:21;;;;;;;25.60;18.48;;;8.30;89.30;;;;;;5092466;28;20044;-71
2024/02/23 06:56:48;;;;;;;36.00;19.30;;;8.60;88.50;;;;;;5108051;28;20437;-70
2024/02/23 06:59:15;;;;;;;27.85;19.80;;;8.80;87.40;;;;;;5074533;28;20434;-70
2024/02/23 07:01:50;;;;;;;36.70;23.85;;;9.00;86.70;;;;;;5104743;28;20028;-72
2024/02/23 07:04:18;;;;;;;58.20;31.17;;;8.70;87.50;;;;;;5087668;28;20051;-72
2024/02/23 07:06:46;;;;;;;27.50;20.15;;;9.10;89.90;;;;;;5077373;28;20539;-72
2024/02/23 07:09:13;;;;;;;27.25;18.38;;;9.10;87.30;;;;;;5106017;28;20101;-73
2024/02/23 07:11:43;;;;;;;25.75;17.45;;;9.00;88.40;;;;;;5105395;28;20043;-72
2024/02/23 07:14:14;;;;;;;30.30;17.05;;;9.40;87.30;;;;;;5087804;28;20479;-72
2024/02/23 07:16:41;;;;;;;31.30;18.52;;;9.70;86.80;;;;;;5083648;28;20038;-73
2024/02/23 07:19:09;;;;;;;32.17;18.73;;;9.90;86.70;;;;;;5070810;28;20129;-72
2024/02/23 07:21:37;;;;;;;28.50;16.95;;;10.10;86.10;;;;;;5074994;28;20035;-71
2024/02/23 07:24:09;;;;;;;28.98;18.05;;;10.30;86.20;;;;;;5086571;28;20424;-73
2024/02/23 07:26:37;;;;;;;27.05;18.05;;;10.40;85.90;;;;;;5089627;28;20035;-71
2024/02/23 07:29:04;;;;;;;25.92;17.75;;;10.30;86.40;;;;;;5072563;28;20069;-71
2024/02/23 07:31:32;;;;;;;28.25;17.80;;;10.50;86.80;;;;;;5072296;28;20070;-73
2024/02/23 07:33:59;;;;;;;30.35;16.95;;;10.60;86.80;;;;;;5105848;28;20039;-72
2024/02/23 07:36:27;;;;;;;24.08;16.13;;;10.70;85.70;;;;;;5102425;28;20031;-71
2024/02/23 07:38:54;;;;;;;27.25;17.00;;;10.70;86.50;;;;;;5084529;28;20166;-72
2024/02/23 07:41:22;;;;;;;18.48;13.25;;;10.90;86.70;;;;;;5090876;28;20031;-71
2024/02/23 07:43:49;;;;;;;20.77;13.48;;;10.90;87.70;;;;;;5105296;28;20085;-73
2024/02/23 07:46:18;;;;;;;23.58;14.43;;;11.00;87.60;;;;;;5107316;28;20127;-73
2024/02/23 07:48:45;;;;;;;24.95;13.50;;;10.90;87.70;;;;;;5107499;28;20035;-74
2024/02/23 07:51:13;;;;;;;16.50;11.40;;;10.90;88.30;;;;;;5074525;28;20048;-71
2024/02/23 07:53:40;;;;;;;18.45;12.60;;;10.90;88.30;;;;;;5085617;28;20131;-72
2024/02/23 07:56:08;;;;;;;16.85;12.05;;;11.20;88.20;;;;;;5069996;28;20487;-74
2024/02/23 07:58:38;;;;;;;19.80;13.32;;;11.40;87.50;;;;;;5069001;28;20036;-74
2024/02/23 08:01:05;;;;;;;20.73;12.25;;;11.50;86.90;;;;;;5068069;28;20052;-73
2024/02/23 08:03:33;;;;;;;18.88;12.95;;;11.50;86.70;;;;;;5067223;28;20475;-72
2024/02/23 08:06:01;;;;;;;18.27;12.93;;;11.60;86.70;;;;;;5088451;28;20526;-74
2024/02/23 08:08:32;;;;;;;17.90;11.57;;;11.70;86.80;;;;;;5067983;28;20138;-73
2024/02/23 08:11:00;;;;;;;16.33;12.00;;;11.80;86.50;;;;;;5051289;28;20040;-72
2024/02/23 08:13:28;;;;;;;17.23;11.13;;;12.00;86.30;;;;;;5071351;28;20102;-73
2024/02/23 08:16:15;;;;;;;18.08;12.60;;;12.20;85.40;;;;;;5081430;28;20070;-74
2024/02/23 08:18:43;;;;;;;19.10;12.18;;;12.20;85.00;;;;;;5069193;28;20044;-72
2024/02/23 08:21:10;;;;;;;16.60;11.82;;;12.30;85.10;;;;;;5069989;28;20071;-71
2024/02/23 08:23:38;;;;;;;16.55;12.10;;;12.40;84.50;;;;;;5067033;28;20135;-72
2024/02/23 08:26:06;;;;;;;17.88;11.45;;;12.30;84.30;;;;;;5085789;28;20111;-72
2024/02/23 08:28:33;;;;;;;18.67;11.23;;;12.40;84.40;;;;;;5088586;28;20067;-73
2024/02/23 08:31:01;;;;;;;17.48;12.02;;;12.50;83.90;;;;;;5065194;28;20066;-72
2024/02/23 08:33:28;;;;;;;18.42;12.52;;;12.50;83.80;;;;;;5086531;28;20420;-71
2024/02/23 08:35:55;;;;;;;17.77;11.05;;;12.40;84.20;;;;;;5067571;28;20523;-73
2024/02/23 08:38:23;;;;;;;16.17;12.00;;;12.10;84.50;;;;;;5084429;28;20550;-72
2024/02/23 08:40:50;;;;;;;17.58;12.13;;;12.00;85.30;;;;;;5089261;28;20040;-72
2024/02/23 08:43:17;;;;;;;17.42;12.10;;;12.10;85.10;;;;;;5085207;28;20127;-74
2024/02/23 08:45:45;;;;;;;15.95;11.75;;;12.50;85.10;;;;;;5089279;28;20434;-73
2024/02/23 08:48:14;;;;;;;16.52;11.60;;;12.50;84.00;;;;;;5089521;28;20079;-73
2024/02/23 08:50:42;;;;;;;16.55;11.75;;;12.50;83.80;;;;;;5072696;28;20048;-72
2024/02/23 08:53:10;;;;;;;15.57;11.45;;;12.70;83.70;;;;;;5076735;28;20060;-74
2024/02/23 08:55:38;;;;;;;16.05;11.70;;;12.80;83.60;;;;;;5084513;28;20032;-71
2024/02/23 08:58:06;;;;;;;15.75;10.32;;;12.80;83.70;;;;;;5083742;28;20122;-72
2024/02/23 09:00:33;;;;;;;17.63;11.55;;;12.50;84.10;;;;;;5061360;28;20046;-73
2024/02/23 09:03:01;;;;;;;16.95;12.07;;;12.50;84.40;;;;;;5059754;28;20095;-73
2024/02/23 09:05:28;;;;;;;19.73;12.02;;;12.40;85.10;;;;;;5083103;28;20132;-73
2024/02/23 09:07:56;;;;;;;19.63;13.30;;;12.70;84.40;;;;;;5062661;28;20126;-72
2024/02/23 09:10:23;;;;;;;19.52;11.60;;;13.10;83.50;;;;;;5094419;28;20425;-72
2024/02/23 09:12:50;;;;;;;18.65;11.25;;;13.10;82.10;;;;;;5065633;28;20102;-71
2024/02/23 09:15:17;;;;;;;18.52;11.65;;;13.20;82.20;;;;;;5086893;28;20067;-76
2024/02/23 09:18:02;;;;;;;14.80;10.32;;;13.60;81.40;;;;;;5065246;28;20432;-71
2024/02/23 09:20:29;;;;;;;16.38;11.10;;;13.90;81.10;;;;;;5084977;28;20050;-73
2024/02/23 09:22:58;;;;;;;15.70;10.63;;;14.10;80.20;;;;;;5076501;28;20424;-72
2024/02/23 09:25:26;;;;;;;14.65;10.82;;;14.90;79.40;;;;;;5086387;28;20100;-72
2024/02/23 09:27:57;;;;;;;16.95;11.18;;;15.60;77.20;;;;;;5082315;28;20067;-71
2024/02/23 09:30:24;;;;;;;16.70;10.20;;;15.90;75.00;;;;;;5081083;28;20051;-73
2024/02/23 09:32:51;;;;;;;15.45;11.38;;;15.90;74.00;;;;;;5091010;28;20098;-72
2024/02/23 09:35:19;;;;;;;16.25;10.52;;;14.80;74.90;;;;;;5090843;28;20049;-73
2024/02/23 09:37:47;;;;;;;15.63;10.80;;;14.60;77.60;;;;;;5080108;28;20035;-75
2024/02/23 09:40:15;;;;;;;16.63;11.23;;;14.50;76.40;;;;;;5096468;28;20044;-74
2024/02/23 09:42:42;;;;;;;15.50;11.15;;;14.80;77.00;;;;;;5078091;28;20082;-72
2024/02/23 09:45:11;;;;;;;15.05;11.15;;;15.20;76.40;;;;;;5072281;28;20044;-72
2024/02/23 09:47:40;;;;;;;17.30;11.55;;;15.20;75.40;;;;;;5092242;28;20042;-73
2024/02/23 09:50:09;;;;;;;16.95;11.65;;;14.70;76.70;;;;;;5094913;28;20093;-71
2024/02/23 09:52:36;;;;;;;18.27;11.43;;;14.20;78.20;;;;;;5080235;28;20043;-73
2024/02/23 09:55:04;;;;;;;15.00;11.05;;;14.20;79.00;;;;;;5080198;28;20040;-72
2024/02/23 09:57:32;;;;;;;17.05;11.52;;;13.90;79.50;;;;;;5062569;28;20131;-72
2024/02/23 09:59:59;;;;;;;17.48;11.70;;;14.10;78.40;;;;;;5060035;28;20086;-73
2024/02/23 10:02:26;;;;;;;17.27;11.07;;;13.90;79.70;;;;;;5071803;28;20143;-74
2024/02/23 10:04:56;;;;;;;17.77;12.00;;;14.50;78.10;;;;;;5089790;28;20040;-72
2024/02/23 10:07:25;;;;;;;16.85;11.10;;;14.50;77.80;;;;;;5087150;28;20036;-73
2024/02/23 10:09:53;;;;;;;19.17;11.32;;;15.50;76.40;;;;;;5051293;28;20040;-73
2024/02/23 10:12:20;;;;;;;15.48;11.35;;;16.30;73.60;;;;;;5070401;28;20056;-72
2024/02/23 10:14:48;;;;;;;15.13;10.70;;;16.90;72.00;;;;;;5091487;28;20129;-72
2024/02/23 10:17:16;;;;;;;16.88;12.00;;;17.30;70.80;;;;;;5074153;28;20441;-73
2024/02/23 10:19:45;;;;;;;15.15;10.18;;;17.20;70.20;;;;;;5083529;28;20135;-72
2024/02/23 10:22:12;;;;;;;15.48;10.48;;;17.10;71.00;;;;;;5095862;28;20390;-74
2024/02/23 10:24:41;;;;;;;18.17;10.32;;;17.20;70.80;;;;;;5076961;28;20476;-74
2024/02/23 10:27:09;;;;;;;14.95;9.80;;;17.70;70.00;;;;;;5089761;28;20054;-72
2024/02/23 10:29:36;;;;;;;15.23;10.25;;;18.20;68.80;;;;;;5084778;28;20037;-74
2024/02/23 10:32:06;;;;;;;14.10;10.13;;;18.10;68.20;;;;;;5084319;28;20032;-74
2024/02/23 10:34:38;;;;;;;13.43;9.20;;;18.50;67.60;;;;;;5095206;28;20074;-73
2024/02/23 10:37:10;;;;;;;15.05;9.60;;;18.70;67.50;;;;;;5084637;28;20292;-72
2024/02/23 10:39:39;;;;;;;12.88;9.07;;;18.70;66.00;;;;;;5089715;28;20036;-74
2024/02/23 10:42:10;;;;;;;13.05;9.18;;;18.30;67.50;;;;;;5091785;28;20039;-73
2024/02/23 10:44:37;;;;;;;14.05;9.10;;;17.90;67.50;;;;;;5086283;28;20398;-74
2024/02/23 10:47:06;;;;;;;15.98;8.75;;;17.80;68.40;;;;;;5082622;28;20033;-75
2024/02/23 10:49:35;;;;;;;14.65;10.23;;;17.60;68.00;;;;;;5094122;28;20130;-71
2024/02/23 10:52:05;;;;;;;12.32;9.00;;;18.10;68.00;;;;;;5074507;28;20051;-75
2024/02/23 10:54:34;;;;;;;13.50;8.00;;;18.30;67.20;;;;;;5075203;28;20410;-75
2024/02/23 10:57:02;;;;;;;13.77;8.32;;;18.40;67.30;;;;;;5099610;28;20277;-73
2024/02/23 10:59:30;;;;;;;12.65;8.73;;;18.50;66.40;;;;;;5105815;27;20042;-74
2024/02/23 11:01:59;;;;;;;12.90;8.73;;;18.10;66.60;;;;;;5099385;28;20459;-73
2024/02/23 11:04:29;;;;;;;12.93;8.98;;;17.60;68.30;;;;;;5101373;28;20066;-73
2024/02/23 11:07:04;;;;;;;12.02;7.78;;;17.50;68.50;;;;;;5087718;28;20864;-73
2024/02/23 11:09:32;;;;;;;16.85;8.68;;;17.40;68.90;;;;;;5083778;28;20063;-74
2024/02/23 11:12:05;;;;;;;13.85;8.68;;;16.90;70.20;;;;;;5087180;28;20438;-72
2024/02/23 11:14:36;;;;;;;13.40;7.95;;;17.50;68.80;;;;;;5086120;28;20101;-73
2024/02/23 11:17:05;;;;;;;11.07;8.05;;;19.00;66.10;;;;;;5105048;28;20130;-73
2024/02/23 11:19:37;;;;;;;13.55;8.55;;;20.10;63.00;;;;;;5103522;28;20028;-72
2024/02/23 11:22:11;;;;;;;19.42;10.15;;;21.30;61.60;;;;;;5109048;28;20035;-74
2024/02/23 11:24:50;;;;;;;20.90;11.35;;;19.80;60.90;;;;;;5090486;28;20483;-74
2024/02/23 11:27:24;;;;;;;15.63;10.05;;;21.10;59.20;;;;;;5104087;28;20384;-76
2024/02/23 11:30:00;;;;;;;17.10;10.98;;;20.30;61.50;;;;;;5107357;28;20045;-74
2024/02/23 11:32:41;;;;;;;20.25;10.75;;;19.40;63.90;;;;;;5084724;28;20491;-75
2024/02/23 11:35:11;;;;;;;14.38;8.68;;;18.30;65.60;;;;;;5089745;28;20044;-74
2024/02/23 11:37:56;;;;;;;15.55;9.98;;;18.30;65.00;;;;;;5104711;28;20032;-73
2024/02/23 11:40:25;;;;;;;11.88;8.00;;;18.30;66.10;;;;;;5095552;28;20128;-73
2024/02/23 11:42:54;;;;;;;10.95;8.05;;;18.30;65.40;;;;;;5071319;28;20613;-72
2024/02/23 11:45:23;;;;;;;13.82;8.48;;;18.10;65.50;;;;;;5083760;28;20043;-73
2024/02/23 11:47:50;;;;;;;12.48;8.70;;;18.80;64.70;;;;;;5088681;28;20073;-72
2024/02/23 11:50:20;;;;;;;10.95;7.18;;;18.50;64.40;;;;;;5098125;28;20385;-73
2024/02/23 11:52:48;;;;;;;10.75;7.10;;;18.30;64.70;;;;;;5103533;28;20036;-72
2024/02/23 11:55:22;;;;;;;11.68;6.45;;;18.60;62.90;;;;;;5099489;28;20631;-73
2024/02/23 11:57:51;;;;;;;9.13;6.05;;;18.60;63.50;;;;;;5106174;28;20043;-74
2024/02/23 12:00:31;;;;;;;;;;;19.20;61.30;;;;;;5108687;28;20047;-73
2024/02/23 12:02:59;;;;;;;10.75;5.97;;;18.90;62.10;;;;;;5078351;28;19934;-73
2024/02/23 12:05:27;;;;;;;12.20;6.00;;;19.10;61.90;;;;;;5106986;28;20035;-71
2024/02/23 12:07:54;;;;;;;11.38;6.10;;;19.20;61.20;;;;;;5087008;28;20036;-72
2024/02/23 12:10:22;;;;;;;9.15;5.53;;;19.10;60.90;;;;;;5104548;28;21537;-73
2024/02/23 12:12:50;;;;;;;11.18;5.80;;;18.80;61.80;;;;;;5085265;28;20063;-72
2024/02/23 12:15:17;;;;;;;8.27;5.72;;;18.20;61.90;;;;;;5108065;28;20053;-73
2024/02/23 12:17:48;;;;;;;8.25;5.70;;;17.90;62.80;;;;;;5085054;28;20083;-71
2024/02/23 12:20:16;;;;;;;8.30;5.63;;;18.40;62.70;;;;;;5101909;28;20814;-75
2024/02/23 12:22:44;;;;;;;9.50;5.80;;;18.30;61.70;;;;;;5101673;28;20057;-73
2024/02/23 12:25:12;;;;;;;9.38;5.80;;;18.20;62.20;;;;;;5105150;28;20058;-74
2024/02/23 12:27:41;;;;;;;9.50;5.88;;;17.70;62.70;;;;;;5075862;28;20417;-72
2024/02/23 12:30:17;;;;;;;7.68;5.38;;;18.80;62.00;;;;;;5082439;28;20067;-72
2024/02/23 12:32:44;;;;;;;8.02;5.03;;;19.70;59.00;;;;;;5070474;28;20048;-72
2024/02/23 12:35:14;;;;;;;7.88;5.18;;;21.20;56.90;;;;;;5074997;28;20071;-73
2024/02/23 12:37:42;;;;;;;7.05;5.07;;;21.40;56.60;;;;;;5105648;28;20101;-73
2024/02/23 12:40:12;;;;;;;7.78;4.97;;;21.40;55.20;;;;;;5106109;28;20043;-72
2024/02/23 12:42:40;;;;;;;7.57;4.50;;;21.10;56.00;;;;;;5101546;28;20107;-72